Kendall, Washington
Current Conditions -  °F | °C
As of 6:00 AM on Monday 26 Jan 2015 (Local Time) from CYXX Reporting Station
Few Clouds Few Clouds  
Wind Chill: 34°   Ceiling: Unl
Heat Index: 39°   Visibility: 10mi
Dew Point: 39°   Wind: 8mph
Humidity: 100%   Direction: 160°SSE
Pressure: 29.94"   Gusts: NA
Location:  48.8512°N, 121.903°W
Report Text: CYXX 261400Z 16007KT 150V250 10SM FEW220 04/04 A2994 RMK CI2 SLP138
Loading
Personal Weather Stations






























Interactive Weather Map New forecast layout! Learn more

10-Day Weather Forecast

Advertisements
Track Severe Weather on mobile